Time;durP1;ratioP1;P1;durP2;ratioP2;P2;SDS_P1;SDS_P2;PMS_P1;PMS_P2;Temp;Humidity;BMP_temperature;BMP_pressure;BME280_temperature;BME280_humidity;BME280_pressure;Samples;Min_cycle;Max_cycle;Signal;HPM_P1;HPM_P2
2022/09/21 00:00:13;;;;;;;1999.90;999.90;;;;;;;7.90;100.00;95181.81;6270911;22;20596;-59
2022/09/21 00:02:39;;;;;;;1999.90;999.90;;;;;;;8.07;100.00;95186.47;6270995;22;20174;-59
2022/09/21 00:05:05;;;;;;;1999.90;999.90;;;;;;;8.08;100.00;95177.13;6270633;22;20155;-60
2022/09/21 00:07:30;;;;;;;1999.90;999.90;;;;;;;7.99;100.00;95176.78;6270822;22;20645;-60
2022/09/21 00:09:56;;;;;;;1999.90;999.90;;;;;;;7.89;100.00;95174.06;6245648;22;20198;-59
2022/09/21 00:12:22;;;;;;;1999.90;999.90;;;;;;;7.89;100.00;95180.28;6270892;22;20211;-59
2022/09/21 00:14:47;;;;;;;1999.90;999.90;;;;;;;7.87;100.00;95179.88;6271177;22;20581;-59
2022/09/21 00:17:12;;;;;;;1999.90;999.90;;;;;;;7.82;100.00;95174.84;6270677;22;20170;-59
2022/09/21 00:19:38;;;;;;;1999.90;999.90;;;;;;;7.75;100.00;95176.81;6271253;22;20172;-59
2022/09/21 00:22:03;;;;;;;1999.90;999.90;;;;;;;7.69;100.00;95181.88;6271540;22;20224;-61
2022/09/21 00:24:28;;;;;;;1999.90;999.90;;;;;;;7.64;100.00;95179.53;6270572;22;20163;-60
2022/09/21 00:26:54;;;;;;;1999.90;999.90;;;;;;;7.48;100.00;95181.88;6270570;22;20191;-61
2022/09/21 00:29:19;;;;;;;1999.90;999.90;;;;;;;7.58;100.00;95186.50;6270379;22;20184;-61
2022/09/21 00:31:44;;;;;;;1999.90;999.90;;;;;;;7.56;100.00;95188.84;6271452;22;20161;-61
2022/09/21 00:34:10;;;;;;;1999.90;999.90;;;;;;;7.53;100.00;95184.19;6271587;22;20161;-61
2022/09/21 00:36:35;;;;;;;1999.90;999.90;;;;;;;7.51;100.00;95181.09;6272054;22;20550;-60
2022/09/21 00:39:01;;;;;;;1999.90;999.90;;;;;;;7.47;100.00;95185.72;6271484;22;20158;-60
2022/09/21 00:41:29;;;;;;;1999.90;999.90;;;;;;;7.46;100.00;95178.75;6246421;23;20193;-60
2022/09/21 00:44:25;;;;;;;1999.90;999.90;;;;;;;7.46;100.00;95184.19;6246274;23;20171;-60
2022/09/21 00:46:54;;;;;;;1999.90;999.90;;;;;;;7.41;100.00;95186.50;6271488;22;20287;-61
2022/09/21 00:49:21;;;;;;;1999.90;999.90;;;;;;;7.35;100.00;95177.97;6271105;22;20276;-60
2022/09/21 00:51:47;;;;;;;1999.90;999.90;;;;;;;7.33;100.00;95179.53;6246275;22;20208;-60
2022/09/21 00:54:22;;;;;;;1999.90;999.90;;;;;;;7.33;100.00;95183.03;6246226;22;20607;-60
2022/09/21 00:56:47;;;;;;;1999.90;999.90;;;;;;;7.26;100.00;95180.31;6246769;23;20166;-60
2022/09/21 00:59:15;;;;;;;1999.90;999.90;;;;;;;7.21;100.00;95174.47;6271750;22;20172;-60
2022/09/21 01:01:41;;;;;;;1999.90;999.90;;;;;;;7.18;100.00;95173.31;6271977;22;20165;-60
2022/09/21 01:04:07;;;;;;;1999.90;999.90;;;;;;;7.12;100.00;95180.28;6272105;22;20249;-60
2022/09/21 01:06:36;;;;;;;1999.90;999.90;;;;;;;7.07;100.00;95177.97;6271663;22;20162;-60
2022/09/21 01:09:01;;;;;;;1999.90;999.90;;;;;;;7.03;100.00;95174.44;6245951;22;20179;-60
2022/09/21 01:11:47;;;;;;;1999.90;999.90;;;;;;;6.99;100.00;95165.50;6246078;23;20577;-60
2022/09/21 01:14:40;;;;;;;1999.90;999.90;;;;;;;6.96;100.00;95177.16;6246813;23;20190;-60
2022/09/21 01:17:08;;;;;;;1999.90;999.90;;;;;;;6.92;100.00;95176.34;6272287;22;20151;-60
2022/09/21 01:20:15;;;;;;;1999.90;999.90;;;;;;;6.88;100.00;95181.00;6271612;22;20212;-60
2022/09/21 01:22:43;;;;;;;1999.90;999.90;;;;;;;6.88;100.00;95180.25;6271652;22;20190;-60
2022/09/21 01:25:36;;;;;;;1999.90;999.90;;;;;;;6.85;100.00;95179.09;6271516;22;20592;-60
2022/09/21 01:28:01;;;;;;;1999.90;999.90;;;;;;;6.81;100.00;95180.97;6271448;22;20162;-60
2022/09/21 01:30:32;;;;;;;1999.90;999.90;;;;;;;6.78;100.00;95184.50;6271132;22;20190;-60
2022/09/21 01:33:16;;;;;;;1999.90;999.90;;;;;;;6.79;100.00;95183.31;6246776;23;20173;-60
2022/09/21 01:35:47;;;;;;;1999.90;999.90;;;;;;;6.78;100.00;95184.50;6246659;23;20172;-59
2022/09/21 01:38:20;;;;;;;1999.90;999.90;;;;;;;6.73;100.00;95185.63;6246822;23;20170;-60
2022/09/21 01:40:51;;;;;;;1999.90;999.90;;;;;;;6.73;100.00;95179.41;6246466;23;20167;-61
2022/09/21 01:43:25;;;;;;;1999.90;999.90;;;;;;;6.79;100.00;95183.31;6271131;22;20595;-60
2022/09/21 01:45:53;;;;;;;1999.90;999.90;;;;;;;6.76;100.00;95186.78;6246468;22;20169;-60
2022/09/21 01:48:21;;;;;;;1999.90;999.90;;;;;;;6.77;100.00;95185.63;6245941;23;20170;-61
2022/09/21 01:50:52;;;;;;;1999.90;999.90;;;;;;;6.75;100.00;95180.59;6266096;22;20203;-60
2022/09/21 01:53:30;;;;;;;1999.90;999.90;;;;;;;6.76;100.00;95184.09;6246693;23;20170;-60
2022/09/21 01:56:01;;;;;;;1999.90;999.90;;;;;;;6.74;100.00;95181.00;6246210;23;20167;-60
2022/09/21 01:58:45;;;;;;;1999.90;999.90;;;;;;;6.72;100.00;95177.88;6246383;23;20167;-59
2022/09/21 02:01:15;;;;;;;1999.90;999.90;;;;;;;6.68;100.00;95177.88;6271412;22;20173;-59
2022/09/21 02:03:46;;;;;;;1999.90;999.90;;;;;;;6.65;100.00;95183.28;6246134;22;20169;-60
2022/09/21 02:06:13;;;;;;;1999.90;999.90;;;;;;;6.56;100.00;95185.59;6271949;22;20171;-60
2022/09/21 02:08:39;;;;;;;1999.90;999.90;;;;;;;6.53;100.00;95180.91;6246192;23;20174;-60
2022/09/21 02:11:05;;;;;;;1999.90;999.90;;;;;;;6.46;100.00;95176.25;6246366;23;20499;-60
2022/09/21 02:13:35;;;;;;;1999.90;999.90;;;;;;;6.43;100.00;95181.66;6246433;22;20494;-59
2022/09/21 02:16:06;;;;;;;1999.90;999.90;;;;;;;6.38;100.00;95174.66;6271522;22;20172;-60
2022/09/21 02:19:03;;;;;;;1999.90;999.90;;;;;;;6.32;100.00;95178.13;6271248;22;20171;-60
2022/09/21 02:21:46;;;;;;;1999.90;999.90;;;;;;;6.27;100.00;95173.06;6271348;22;20170;-60
2022/09/21 02:24:28;;;;;;;1999.90;999.90;;;;;;;6.22;100.00;95176.13;6271274;22;20625;-60
2022/09/21 02:27:12;;;;;;;1999.90;999.90;;;;;;;6.20;100.00;95173.03;6246507;23;20495;-60
2022/09/21 02:29:50;;;;;;;1999.90;999.90;;;;;;;6.18;100.00;95180.75;6246348;23;20209;-60
2022/09/21 02:32:32;;;;;;;1999.90;999.90;;;;;;;6.19;100.00;95177.66;6271514;22;20162;-59
2022/09/21 02:35:05;;;;;;;1999.90;999.90;;;;;;;6.20;100.00;95178.44;6272267;22;20166;-60
2022/09/21 02:37:43;;;;;;;1999.90;999.90;;;;;;;6.16;100.00;95183.09;6246317;23;20217;-60
2022/09/21 02:40:12;;;;;;;1999.90;999.90;;;;;;;6.13;100.00;95178.41;6246258;23;20165;-60
2022/09/21 02:42:41;;;;;;;1999.90;999.90;;;;;;;6.12;100.00;95182.28;6271387;22;20163;-60
2022/09/21 02:45:15;;;;;;;1999.90;999.90;;;;;;;6.12;100.00;95182.28;6271191;22;20170;-61
2022/09/21 02:47:53;;;;;;;1999.90;999.90;;;;;;;6.10;100.00;95185.38;6246022;23;20637;-61
2022/09/21 02:50:25;;;;;;;1999.90;999.90;;;;;;;6.05;100.00;95187.66;6245996;23;20193;-61
2022/09/21 02:52:53;;;;;;;1999.90;999.90;;;;;;;6.02;100.00;95178.34;6245605;23;20163;-60
2022/09/21 02:55:18;;;;;;;1999.90;999.90;;;;;;;6.05;100.00;95182.25;6271195;22;20158;-59
2022/09/21 02:57:46;;;;;;;1999.90;999.90;;;;;;;6.05;100.00;95182.25;6271230;22;20158;-61
2022/09/21 03:00:14;;;;;;;1999.90;999.90;;;;;;;5.91;100.00;95182.91;6245442;22;20170;-60
2022/09/21 03:02:42;;;;;;;1999.90;999.90;;;;;;;5.85;100.00;95184.47;6245568;22;20161;-60
2022/09/21 03:05:09;;;;;;;1999.90;999.90;;;;;;;5.79;100.00;95182.47;6246196;22;20150;-60
2022/09/21 03:07:35;;;;;;;1999.90;999.90;;;;;;;5.80;100.00;95186.72;6245761;23;20297;-60
2022/09/21 03:10:00;;;;;;;1999.90;999.90;;;;;;;5.79;100.00;95180.50;6246012;23;20579;-60
2022/09/21 03:12:26;;;;;;;1999.90;999.90;;;;;;;5.77;100.00;95187.47;6245565;23;20176;-60
2022/09/21 03:14:52;;;;;;;1999.90;999.90;;;;;;;5.71;100.00;95194.38;6271796;22;20256;-60
2022/09/21 03:17:17;;;;;;;1999.90;999.90;;;;;;;5.67;100.00;95190.88;6245545;23;20253;-60
2022/09/21 03:19:43;;;;;;;1999.90;999.90;;;;;;;5.65;100.00;95195.91;6245464;23;20158;-60
2022/09/21 03:22:08;;;;;;;1999.90;999.90;;;;;;;5.63;100.00;95203.59;6270810;22;20255;-61
2022/09/21 03:24:46;;;;;;;1999.90;999.90;;;;;;;5.62;100.00;95202.84;6245588;22;20159;-60
2022/09/21 03:27:21;;;;;;;1999.90;999.90;;;;;;;5.57;100.00;95194.31;6245596;23;20160;-60
2022/09/21 03:29:47;;;;;;;1999.90;999.90;;;;;;;5.54;100.00;95203.16;6245438;23;20188;-61
2022/09/21 03:32:13;;;;;;;1999.90;999.90;;;;;;;5.51;100.00;95209.31;6245781;23;20165;-60
2022/09/21 03:34:39;;;;;;;1999.90;999.90;;;;;;;5.48;100.00;95207.38;6271053;22;20166;-60
2022/09/21 03:37:07;;;;;;;1999.90;999.90;;;;;;;5.50;100.00;95205.06;6245179;23;20166;-61
2022/09/21 03:39:32;;;;;;;1999.90;999.90;;;;;;;5.46;100.00;95209.69;6271406;22;20163;-62
2022/09/21 03:41:58;;;;;;;1999.90;999.90;;;;;;;5.45;100.00;95208.09;6245268;22;20244;-60
2022/09/21 03:44:24;;;;;;;1999.90;999.90;;;;;;;5.44;100.00;95206.56;6245728;23;20161;-60
2022/09/21 03:46:50;;;;;;;1999.90;999.90;;;;;;;5.43;100.00;95199.59;6271380;22;20538;-60
2022/09/21 03:49:16;;;;;;;1999.90;999.90;;;;;;;5.43;100.00;95199.59;6245531;23;20200;-60
2022/09/21 03:51:42;;;;;;;1999.90;999.90;;;;;;;5.43;100.00;95205.00;6245395;22;20202;-60
2022/09/21 03:54:08;;;;;;;1999.90;999.90;;;;;;;5.37;100.00;95203.78;6245413;22;20161;-60
2022/09/21 03:56:33;;;;;;;1999.90;999.90;;;;;;;5.35;100.00;95204.16;6245306;23;20165;-60
2022/09/21 03:58:59;;;;;;;1999.90;999.90;;;;;;;5.32;100.00;95212.28;6245012;22;20163;-61
2022/09/21 04:01:24;;;;;;;1999.90;999.90;;;;;;;5.33;100.00;95197.56;6245531;23;20157;-60
2022/09/21 04:03:50;;;;;;;1999.90;999.90;;;;;;;5.33;100.00;95208.41;6270869;22;20161;-61
2022/09/21 04:06:15;;;;;;;1999.90;999.90;;;;;;;5.28;100.00;95206.81;6244920;23;20215;-59
2022/09/21 04:08:41;;;;;;;1999.90;999.90;;;;;;;5.29;100.00;95215.72;6245434;23;20176;-60
2022/09/21 04:11:11;;;;;;;1999.90;999.90;;;;;;;5.27;100.00;95212.59;6271304;22;20687;-60
2022/09/21 04:13:37;;;;;;;1999.90;999.90;;;;;;;5.28;100.00;95219.59;6270739;22;20166;-61
2022/09/21 04:16:02;;;;;;;1999.90;999.90;;;;;;;5.27;100.00;95224.22;6270718;22;20238;-61
2022/09/21 04:18:28;;;;;;;1999.90;999.90;;;;;;;5.25;100.00;95220.31;6245218;22;20165;-61
2022/09/21 04:20:55;;;;;;;1999.90;999.90;;;;;;;5.29;100.00;95221.91;6270667;22;20260;-62
2022/09/21 04:23:21;;;;;;;1999.90;999.90;;;;;;;5.29;100.00;95231.97;6270729;22;20188;-61
2022/09/21 04:25:50;;;;;;;1999.90;999.90;;;;;;;5.21;100.00;95227.63;6271228;22;20161;-61
2022/09/21 04:28:16;;;;;;;1999.90;999.90;;;;;;;5.22;100.00;95221.06;6244581;23;20165;-62
2022/09/21 04:30:41;;;;;;;1999.90;999.90;;;;;;;5.27;100.00;95226.13;6244452;23;20196;-62
2022/09/21 04:33:06;;;;;;;1999.90;999.90;;;;;;;5.26;100.00;95216.47;6270593;22;20192;-61
2022/09/21 04:35:32;;;;;;;1999.90;999.90;;;;;;;5.25;100.00;95225.75;6270414;22;20169;-61
2022/09/21 04:37:57;;;;;;;1999.90;999.90;;;;;;;5.22;100.00;95226.47;6271112;22;20223;-61
2022/09/21 04:40:22;;;;;;;1999.90;999.90;;;;;;;5.17;100.00;95221.41;6245491;23;20248;-62
2022/09/21 04:42:54;;;;;;;1999.90;999.90;;;;;;;5.15;100.00;95231.81;6271163;22;20601;-63
2022/09/21 04:45:21;;;;;;;1999.90;999.90;;;;;;;5.10;100.00;95229.47;6270346;22;20168;-61
2022/09/21 04:47:47;;;;;;;1999.90;999.90;;;;;;;5.13;100.00;95229.47;6245202;23;20165;-61
2022/09/21 04:50:12;;;;;;;1999.90;999.90;;;;;;;5.15;100.00;95234.53;6244994;23;20199;-62
2022/09/21 04:52:38;;;;;;;1999.90;999.90;;;;;;;5.12;100.00;95232.56;6270473;22;20168;-62
2022/09/21 04:55:03;;;;;;;1999.90;999.90;;;;;;;5.06;100.00;95239.47;6245126;23;20240;-62
2022/09/21 04:57:29;;;;;;;1999.90;999.90;;;;;;;5.08;100.00;95248.00;6269706;22;20172;-62
2022/09/21 04:59:54;;;;;;;1999.90;999.90;;;;;;;5.07;100.00;95252.59;6271000;22;20157;-62
2022/09/21 05:02:20;;;;;;;1999.90;999.90;;;;;;;5.09;100.00;95255.72;6270787;22;20214;-62
2022/09/21 05:04:45;;;;;;;1999.90;999.90;;;;;;;5.12;100.00;95252.28;6245017;23;20163;-61
2022/09/21 05:07:10;;;;;;;1999.90;999.90;;;;;;;5.20;100.00;95261.25;6270799;22;20157;-61
2022/09/21 05:12:20;;;;;;;1999.90;999.90;;;;;;;5.29;100.00;95259.03;6245988;23;20167;-62
2022/09/21 05:14:45;;;;;;;1999.90;999.90;;;;;;;5.58;100.00;95255.44;6270421;22;20240;-62
2022/09/21 05:17:11;;;;;;;1999.90;999.90;;;;;;;5.96;100.00;95254.97;6270791;22;20172;-61
2022/09/21 05:19:36;;;;;;;1999.90;999.90;;;;;;;6.30;100.00;95254.41;6246595;22;20650;-62
2022/09/21 05:22:02;;;;;;;1999.90;999.90;;;;;;;6.77;100.00;95259.69;6271741;22;20165;-62
2022/09/21 05:24:27;;;;;;;1999.90;999.90;;;;;;;7.27;100.00;95251.66;6271691;22;20158;-62
2022/09/21 05:26:52;;;;;;;1999.90;999.90;;;;;;;7.82;100.00;95245.50;6271544;22;20256;-62
2022/09/21 05:29:18;;;;;;;1999.90;999.90;;;;;;;8.19;100.00;95259.47;6271376;22;20186;-61
2022/09/21 05:31:53;;;;;;;1999.90;999.90;;;;;;;8.53;100.00;95254.38;6246145;22;20171;-62
2022/09/21 05:34:41;;;;;;;1999.90;999.90;;;;;;;8.91;100.00;95251.53;6246529;23;20160;-62
2022/09/21 05:37:29;;;;;;;1999.90;999.90;;;;;;;9.19;100.00;95245.94;6230387;23;20219;-61
2022/09/21 05:39:55;;;;;;;1999.90;999.90;;;;;;;9.26;100.00;95232.25;6199813;23;20169;-62
2022/09/21 05:42:21;;;;;;;1999.90;999.90;;;;;;;8.94;100.00;95223.50;6245909;23;20257;-61
2022/09/21 05:44:48;;;;;;;1999.90;999.90;;;;;;;8.89;100.00;95215.72;6245553;23;20172;-60
2022/09/21 05:47:25;;;;;;;1999.90;999.90;;;;;;;8.98;100.00;95213.38;6246812;23;20200;-60
2022/09/21 05:50:28;;;;;;;1999.90;999.90;;;;;;;9.11;100.00;95206.28;6271786;22;20203;-65
2022/09/21 05:53:22;;;;;;;1999.90;999.90;;;;;;;9.53;100.00;95177.97;6271506;22;20169;-60
2022/09/21 05:55:56;;;;;;;1999.90;999.90;;;;;;;9.89;100.00;95168.31;6271742;22;20217;-60
2022/09/21 05:58:30;;;;;;;1999.90;999.90;;;;;;;10.50;100.00;95155.63;6246235;22;20161;-61
2022/09/21 06:01:26;;;;;;;1999.90;999.90;;;;;;;11.41;100.00;95118.81;6271749;22;20174;-60
2022/09/21 06:03:53;;;;;;;1999.90;999.90;;;;;;;12.14;100.00;95051.88;6245570;23;20168;-61
2022/09/21 06:06:19;;;;;;;1999.90;999.90;;;;;;;12.58;100.00;95004.78;6271736;22;20168;-61
2022/09/21 06:08:45;;;;;;;1999.90;999.90;;;;;;;13.16;100.00;94983.88;6246228;22;20157;-61
2022/09/21 06:11:11;;;;;;;1999.90;999.90;;;;;;;13.41;100.00;94989.50;6245519;22;20189;-62
2022/09/21 06:13:37;;;;;;;1999.90;999.90;;;;;;;13.99;100.00;94991.06;6245796;22;20161;-61
2022/09/21 06:16:03;;;;;;;1999.90;999.90;;;;;;;14.38;100.00;95036.69;6271611;22;20200;-61
2022/09/21 06:18:28;;;;;;;1999.90;999.90;;;;;;;14.75;100.00;95072.47;6245619;23;20215;-59
2022/09/21 06:20:53;;;;;;;1999.90;999.90;;;;;;;15.12;100.00;95126.00;6270732;22;20509;-60
2022/09/21 06:23:19;;;;;;;1999.90;999.90;;;;;;;15.37;100.00;95685.47;6245675;22;20191;-60
2022/09/21 06:25:51;;;;;;;1999.90;999.90;;;;;;;15.96;100.00;96011.13;6245328;23;20162;-60
2022/09/21 06:28:16;;;;;;;1999.90;999.90;;;;;;;16.65;100.00;95963.28;6245837;23;20169;-56
2022/09/21 06:30:43;;;;;;;1999.90;999.90;;;;;;;17.11;100.00;95851.81;6270989;22;20181;-58
2022/09/21 06:33:09;;;;;;;1999.90;999.90;;;;;;;17.36;100.00;95857.44;6271455;22;20168;-59
2022/09/21 06:35:35;;;;;;;1999.90;999.90;;;;;;;17.23;100.00;95862.13;6245446;22;20153;-59
2022/09/21 06:38:06;;;;;;;1999.90;999.90;;;;;;;17.55;100.00;95848.28;6245470;23;20165;-58
2022/09/21 06:40:33;;;;;;;1999.90;999.90;;;;;;;17.77;100.00;95827.88;6245732;23;20169;-59
2022/09/21 06:43:01;;;;;;;1999.90;999.90;;;;;;;18.05;100.00;95942.38;6245335;23;20172;-60
2022/09/21 06:45:28;;;;;;;1999.90;999.90;;;;;;;18.72;100.00;95941.22;6245640;23;20161;-59
2022/09/21 06:47:53;;;;;;;1999.90;999.90;;;;;;;19.49;100.00;95958.88;6271036;22;20583;-59
2022/09/21 06:50:20;;;;;;;1999.90;999.90;;;;;;;19.60;100.00;95964.06;6245487;22;20200;-59
2022/09/21 06:52:45;;;;;;;1999.90;999.90;;;;;;;19.62;100.00;95981.00;6246051;22;20153;-59
2022/09/21 06:55:11;;;;;;;1999.90;999.90;;;;;;;19.40;100.00;95983.72;6245270;23;20276;-58
2022/09/21 06:57:39;;;;;;;1999.90;999.90;;;;;;;19.74;100.00;95977.41;6270841;22;20161;-60
2022/09/21 07:00:07;;;;;;;1999.90;999.90;;;;;;;20.26;100.00;96008.13;6271984;22;20165;-59
2022/09/21 07:02:32;;;;;;;1999.90;999.90;;;;;;;20.36;100.00;96003.41;6245311;22;20161;-59
2022/09/21 07:04:58;;;;;;;1999.90;999.90;;;;;;;20.71;100.00;96011.19;6245196;23;20196;-60
2022/09/21 07:07:24;;;;;;;1999.90;999.90;;;;;;;20.41;98.72;96019.47;6271021;22;20161;-57
2022/09/21 07:09:50;;;;;;;1999.90;999.90;;;;;;;20.06;100.00;96010.38;6245483;23;20182;-58
2022/09/21 07:12:16;;;;;;;1999.90;999.90;;;;;;;20.43;100.00;96020.56;6271264;22;20188;-59
2022/09/21 07:14:45;;;;;;;1999.90;999.90;;;;;;;20.52;100.00;96017.88;6245770;23;20165;-59
2022/09/21 07:17:10;;;;;;;1999.90;999.90;;;;;;;20.46;92.50;96043.84;6271147;22;20196;-59
2022/09/21 07:19:36;;;;;;;1999.90;999.90;;;;;;;20.25;93.56;96030.75;6245038;22;20165;-57
2022/09/21 07:22:01;;;;;;;1999.90;999.90;;;;;;;20.70;94.40;96029.09;6271546;22;20184;-56
2022/09/21 07:24:27;;;;;;;1999.90;999.90;;;;;;;20.84;91.75;96023.00;6271412;22;20165;-60
2022/09/21 07:26:53;;;;;;;1999.90;999.90;;;;;;;20.76;90.72;96030.03;6270870;22;20256;-60
2022/09/21 07:29:18;;;;;;;1999.90;999.90;;;;;;;21.23;86.58;96030.63;6245854;23;20307;-60
2022/09/21 07:31:44;;;;;;;1999.90;999.90;;;;;;;21.54;81.96;96038.94;6271288;22;20169;-58
2022/09/21 07:34:10;;;;;;;1999.90;999.90;;;;;;;21.53;79.83;96049.25;6270909;22;20165;-59
2022/09/21 07:36:35;;;;;;;1999.90;999.90;;;;;;;21.88;79.41;96045.06;6271097;22;20227;-59
2022/09/21 07:39:02;;;;;;;1999.90;999.90;;;;;;;21.46;81.60;96043.22;6270580;22;20165;-59
2022/09/21 07:41:28;;;;;;;1999.90;999.90;;;;;;;21.05;76.48;96058.31;6270490;22;20161;-59
2022/09/21 07:43:53;;;;;;;1999.90;999.90;;;;;;;21.30;79.85;96058.13;6245184;22;20176;-59
2022/09/21 07:46:19;;;;;;;1999.90;999.90;;;;;;;20.91;76.97;96064.38;6244753;22;20262;-59
2022/09/21 07:48:45;;;;;;;1999.90;999.90;;;;;;;22.40;68.85;96088.59;6270922;22;20161;-55
2022/09/21 07:51:13;;;;;;;1999.90;999.90;;;;;;;23.33;69.48;96084.03;6244688;23;20247;-56
2022/09/21 07:53:41;;;;;;;1999.90;999.90;;;;;;;22.61;63.88;96103.63;6245437;23;20222;-56
2022/09/21 07:56:09;;;;;;;1999.90;999.90;;;;;;;22.80;65.36;96099.59;6270780;22;20165;-56
2022/09/21 08:01:23;;;;;;;1999.90;999.90;;;;;;;23.24;61.60;96111.97;6246821;23;20171;-56
2022/09/21 08:03:49;;;;;;;1999.90;999.90;;;;;;;22.48;65.63;96103.00;6245261;23;20165;-58
2022/09/21 08:06:14;;;;;;;1999.90;999.90;;;;;;;23.64;62.40;96109.66;6245303;22;20168;-58
2022/09/21 08:08:40;;;;;;;1999.90;999.90;;;;;;;23.33;60.14;96111.91;6270704;22;20157;-60
2022/09/21 08:11:06;;;;;;;1999.90;999.90;;;;;;;22.02;63.66;96107.69;6270530;22;20185;-57
2022/09/21 08:13:32;;;;;;;1999.90;999.90;;;;;;;21.88;66.49;96103.50;6245795;23;20240;-59
2022/09/21 08:16:01;;;;;;;1999.90;999.90;;;;;;;22.18;63.06;96105.41;6270608;22;20518;-57
2022/09/21 08:18:27;;;;;;;1999.90;999.90;;;;;;;23.66;59.93;96109.94;6244988;23;20157;-59
2022/09/21 08:20:54;;;;;;;1999.90;999.90;;;;;;;24.33;56.98;96107.47;6245090;22;20180;-60
2022/09/21 08:23:20;;;;;;;1999.90;999.90;;;;;;;23.40;57.60;96114.38;6270581;22;20302;-59
2022/09/21 08:25:45;;;;;;;1999.90;999.90;;;;;;;23.24;60.84;96111.97;6245379;22;20202;-59
2022/09/21 08:28:10;;;;;;;1999.90;999.90;;;;;;;23.76;55.02;96114.25;6245208;22;20195;-58
2022/09/21 08:30:36;;;;;;;1999.90;999.90;;;;;;;21.64;64.50;96112.81;6270360;22;20181;-58
2022/09/21 08:33:02;;;;;;;1999.90;999.90;;;;;;;20.60;67.51;96110.75;6270789;22;20276;-58
2022/09/21 08:35:27;;;;;;;1999.90;999.90;;;;;;;21.73;65.45;96116.44;6270893;22;20180;-59
2022/09/21 08:37:53;;;;;;;1999.90;999.90;;;;;;;23.10;60.33;96112.56;6245441;23;20161;-60
2022/09/21 08:40:19;;;;;;;1999.90;999.90;;;;;;;22.57;59.30;96114.16;6270227;22;20169;-58
2022/09/21 08:43:06;;;;;;;1999.90;999.90;;;;;;;22.29;60.16;96122.44;6244772;23;20192;-59
2022/09/21 08:45:38;;;;;;;1999.90;999.90;;;;;;;21.82;58.37;96122.00;6245377;23;20173;-59
2022/09/21 08:48:12;;;;;;;1999.90;999.90;;;;;;;22.55;60.79;96120.19;6245074;23;20219;-58
2022/09/21 08:50:41;;;;;;;1999.90;999.90;;;;;;;22.72;60.18;96121.41;6270197;22;20216;-59
2022/09/21 08:53:20;;;;;;;1999.90;999.90;;;;;;;20.88;66.83;96126.41;6271180;22;20157;-58
2022/09/21 08:55:46;;;;;;;1999.90;999.90;;;;;;;18.95;78.13;96120.81;6246341;23;20161;-59
2022/09/21 08:58:20;;;;;;;1999.90;999.90;;;;;;;19.05;81.04;96109.44;6271980;22;20149;-58
2022/09/21 09:00:47;;;;;;;1999.90;999.90;;;;;;;19.17;79.84;96113.44;6246858;23;20229;-59
2022/09/21 09:03:31;;;;;;;1999.90;999.90;;;;;;;17.76;93.56;96082.53;6271410;22;20165;-58
2022/09/21 09:06:04;;;;;;;1999.90;999.90;;;;;;;17.06;98.57;96073.13;6271985;22;20168;-58
2022/09/21 09:08:44;;;;;;;1999.90;999.90;;;;;;;16.82;100.00;96039.34;6246265;23;20169;-59
2022/09/21 09:11:32;;;;;;;1999.90;999.90;;;;;;;16.15;100.00;96021.44;6271591;22;20189;-56
2022/09/21 09:14:35;;;;;;;1999.90;999.90;;;;;;;15.27;100.00;95986.38;6271804;22;20169;-56
2022/09/21 09:17:37;;;;;;;1999.90;999.90;;;;;;;17.88;100.00;96021.81;6271507;22;20164;-59
2022/09/21 09:20:38;;;;;;;1999.90;999.90;;;;;;;18.12;93.29;96052.75;6272110;22;20165;-59
2022/09/21 09:23:09;;;;;;;1999.90;999.90;;;;;;;19.48;89.11;96047.22;6246687;23;20271;-58
2022/09/21 09:25:41;;;;;;;1999.90;999.90;;;;;;;19.44;80.58;96080.56;6271655;22;20205;-58
2022/09/21 09:28:45;;;;;;;1999.90;999.90;;;;;;;17.41;93.51;96053.78;6246647;23;20191;-58
2022/09/21 09:31:33;;;;;;;1999.90;999.90;;;;;;;18.71;83.86;96078.00;6179597;23;20518;-59
2022/09/21 09:34:21;;;;;;;1999.90;999.90;;;;;;;19.89;69.58;96100.50;6272145;22;20229;-59
2022/09/21 09:36:53;;;;;;;1999.90;999.90;;;;;;;19.73;76.78;96092.31;6246071;23;20164;-56
2022/09/21 09:39:19;;;;;;;1999.90;999.90;;;;;;;19.83;78.39;96076.53;6246931;23;20184;-58
2022/09/21 09:41:53;;;;;;;1999.90;999.90;;;;;;;20.18;68.93;96105.91;6271356;22;20165;-58
2022/09/21 09:44:40;;;;;;;1999.90;999.90;;;;;;;19.51;78.37;96085.13;6271880;22;20575;-59
2022/09/21 09:47:08;;;;;;;1999.90;999.90;;;;;;;18.78;78.03;96089.66;6272511;22;20165;-58
2022/09/21 09:49:55;;;;;;;1999.90;999.90;;;;;;;18.24;81.83;96082.44;6271711;22;20627;-59
2022/09/21 09:52:21;;;;;;;1999.90;999.90;;;;;;;20.10;71.14;96088.72;6271684;22;20248;-59
2022/09/21 09:54:47;;;;;;;1999.90;999.90;;;;;;;19.85;70.93;96083.19;6246120;23;20190;-60
2022/09/21 09:57:14;;;;;;;1999.90;999.90;;;;;;;18.90;73.08;96086.16;6272576;22;20173;-59
2022/09/21 09:59:47;;;;;;;1999.90;999.90;;;;;;;19.40;73.87;96077.91;6245891;23;20168;-59
2022/09/21 10:02:27;;;;;;;1999.90;999.90;;;;;;;20.97;64.88;96084.03;6271526;22;20169;-59
2022/09/21 10:05:07;;;;;;;1999.90;999.90;;;;;;;18.77;72.61;96082.59;6271226;22;20167;-59
2022/09/21 10:07:41;;;;;;;1999.90;999.90;;;;;;;19.29;67.43;96074.72;6246610;23;20237;-56
2022/09/21 10:10:31;;;;;;;1999.90;999.90;;;;;;;20.07;66.04;96077.72;6245635;22;20276;-59
2022/09/21 10:13:15;;;;;;;1999.90;999.90;;;;;;;20.23;64.12;96077.59;6272151;22;20199;-57
2022/09/21 10:15:49;;;;;;;1999.90;999.90;;;;;;;21.21;64.91;96068.44;6271324;22;20165;-58
2022/09/21 10:18:20;;;;;;;1999.90;999.90;;;;;;;22.63;59.75;96067.72;6245953;23;20169;-58
2022/09/21 10:20:53;;;;;;;1999.90;999.90;;;;;;;21.23;58.23;96074.31;6246258;23;20170;-58
2022/09/21 10:23:18;;;;;;;1999.90;999.90;;;;;;;19.04;69.05;96073.88;6271380;22;20196;-57
2022/09/21 10:25:44;;;;;;;1999.90;999.90;;;;;;;17.97;82.18;96063.44;6245864;22;20195;-58
2022/09/21 10:28:12;;;;;;;1999.90;999.90;;;;;;;18.03;79.67;96060.91;6271179;22;20215;-58
2022/09/21 10:30:38;;;;;;;1999.90;999.90;;;;;;;19.26;74.06;96058.19;6245987;22;20177;-59
2022/09/21 10:33:19;;;;;;;1999.90;999.90;;;;;;;20.05;69.50;96053.19;6271855;22;20169;-59
2022/09/21 10:35:49;;;;;;;1999.90;999.90;;;;;;;19.06;71.77;96068.69;6246215;23;20227;-57
2022/09/21 10:38:17;;;;;;;1999.90;999.90;;;;;;;17.80;77.53;96053.59;6245477;23;20248;-55
2022/09/21 10:40:47;;;;;;;1999.90;999.90;;;;;;;17.70;81.06;96040.06;6271659;22;20169;-58
2022/09/21 10:43:34;;;;;;;1999.90;999.90;;;;;;;16.12;91.87;96025.03;6245461;23;20161;-55
2022/09/21 10:46:00;;;;;;;1999.90;999.90;;;;;;;16.78;92.67;96024.09;6246013;23;20165;-53
2022/09/21 10:48:27;;;;;;;1999.90;999.90;;;;;;;16.62;93.41;96021.28;6271478;22;20555;-55
2022/09/21 10:50:54;;;;;;;1999.90;999.90;;;;;;;17.04;89.64;96018.34;6245080;23;20220;-56
2022/09/21 10:53:27;;;;;;;1999.90;999.90;;;;;;;16.58;94.62;96017.81;6271639;22;20175;-56
2022/09/21 10:55:59;;;;;;;1999.90;999.90;;;;;;;15.84;100.00;96009.00;6271209;22;20252;-56
2022/09/21 10:58:26;;;;;;;1999.90;999.90;;;;;;;15.72;100.00;95995.09;6246114;23;20520;-56
2022/09/21 11:00:52;;;;;;;1999.90;999.90;;;;;;;15.10;100.00;95981.97;6246072;23;20165;-55
2022/09/21 11:03:30;;;;;;;1999.90;999.90;;;;;;;15.19;100.00;95979.47;6246054;23;20164;-57
2022/09/21 11:06:04;;;;;;;1999.90;999.90;;;;;;;15.52;100.00;95975.78;6271015;22;20188;-57
2022/09/21 11:08:36;;;;;;;1999.90;999.90;;;;;;;15.56;100.00;95970.97;6246049;23;20567;-56
2022/09/21 11:11:20;;;;;;;1999.90;999.90;;;;;;;15.64;100.00;95977.13;6245472;23;20216;-57